Columbus, Ohio
Traffic Map
Current Weather Conditions
Columbus, Ohio
Overcast
Overcast
39°
Feels Like: 39°
Wind Chill: 39° Ceiling: 3700
Heat Index: 39° Visibility: 10mi
Dew Point: 26° Wind: 3mph
Humidity: 60% Direction: 270° (W)
Pressure: 30.31in Gusts: 0mph
Raw Report DataKCMH 031951Z 27003KT 10SM OVC037 04/M03 A3031 RMK AO2 SLP271 T00391033
Traffic Incident Summary
Active as of:
Severity:
Category:
InformationThere was an issue retrieving the traffic information for this location. Please try a different location or try again shortly.
Advertisements
Track Severe Weather on mobile